createdAt,value
2019-05-22T00:00:53.838Z,10.00
2019-05-22T00:01:53.796Z,10.40
2019-05-22T00:02:53.803Z,10.30
2019-05-22T00:03:53.797Z,10.30
2019-05-22T00:04:53.802Z,10.20
2019-05-22T00:05:53.826Z,9.10
2019-05-22T00:06:53.801Z,10.30
2019-05-22T00:07:53.798Z,9.70
2019-05-22T00:08:53.800Z,10.70
2019-05-22T00:09:53.799Z,10.20
2019-05-22T00:10:53.829Z,10.10
2019-05-22T00:11:53.802Z,10.50
2019-05-22T00:12:53.810Z,10.00
2019-05-22T00:13:53.797Z,10.00
2019-05-22T00:14:53.799Z,10.80
2019-05-22T00:15:53.832Z,10.40
2019-05-22T00:16:53.800Z,11.40
2019-05-22T00:17:53.800Z,10.30
2019-05-22T00:18:53.806Z,11.10
2019-05-22T00:19:53.805Z,9.60
2019-05-22T00:20:53.827Z,11.00
2019-05-22T00:21:53.800Z,10.70
2019-05-22T00:22:53.798Z,11.40
2019-05-22T00:23:53.798Z,10.40
2019-05-22T00:24:53.799Z,11.50
2019-05-22T00:25:53.826Z,11.00
2019-05-22T00:26:53.802Z,10.80
2019-05-22T00:27:53.798Z,11.60
2019-05-22T00:28:53.795Z,11.20
2019-05-22T00:29:53.799Z,11.00
2019-05-22T00:30:53.830Z,11.00
2019-05-22T00:31:53.797Z,10.70
2019-05-22T00:32:53.797Z,10.30
2019-05-22T00:33:53.804Z,11.00
2019-05-22T00:34:53.798Z,10.60
2019-05-22T00:35:53.840Z,10.80
2019-05-22T00:36:53.796Z,11.60
2019-05-22T00:37:53.798Z,11.70
2019-05-22T00:38:53.795Z,11.30
2019-05-22T00:39:53.798Z,11.30
2019-05-22T00:40:53.842Z,12.00
2019-05-22T00:41:53.802Z,11.20
2019-05-22T00:43:03.400Z,11.20
2019-05-22T00:43:53.798Z,9.90
2019-05-22T00:44:53.794Z,9.70
2019-05-22T00:45:53.832Z,9.00
2019-05-22T00:46:53.805Z,10.70
2019-05-22T00:47:53.799Z,11.30
2019-05-22T00:48:53.806Z,11.20
2019-05-22T00:49:53.800Z,11.30
2019-05-22T00:50:53.831Z,10.70
2019-05-22T00:51:53.824Z,10.50
2019-05-22T00:52:53.797Z,11.20
2019-05-22T00:53:53.804Z,11.40
2019-05-22T00:54:53.800Z,10.10
2019-05-22T00:55:53.805Z,11.30
2019-05-22T00:56:53.828Z,12.50
2019-05-22T00:57:53.799Z,11.50
2019-05-22T00:58:53.793Z,11.80
2019-05-22T00:59:54.515Z,10.90
2019-05-22T01:00:53.798Z,10.70
2019-05-22T01:01:53.827Z,11.20
2019-05-22T01:02:53.797Z,11.60
2019-05-22T01:03:53.796Z,11.40
2019-05-22T01:04:53.801Z,11.90
2019-05-22T01:05:53.803Z,10.50
2019-05-22T01:06:53.835Z,10.90
2019-05-22T01:07:53.797Z,8.90
2019-05-22T01:08:53.800Z,11.40
2019-05-22T01:09:53.801Z,9.00
2019-05-22T01:10:53.800Z,10.40
2019-05-22T01:11:53.826Z,9.40
2019-05-22T01:12:53.797Z,11.10
2019-05-22T01:13:53.796Z,11.40
2019-05-22T01:14:53.799Z,11.50
2019-05-22T01:15:53.800Z,11.40
2019-05-22T01:16:53.843Z,11.70
2019-05-22T01:17:53.802Z,11.90
2019-05-22T01:18:53.796Z,12.40
2019-05-22T01:19:53.844Z,12.40
2019-05-22T01:20:53.799Z,12.50
2019-05-22T01:21:53.820Z,11.70
2019-05-22T01:22:53.797Z,12.50
2019-05-22T01:23:53.792Z,12.10
2019-05-22T01:24:53.816Z,11.80
2019-05-22T01:25:53.792Z,12.10
2019-05-22T01:26:53.822Z,11.70
2019-05-22T01:27:53.832Z,11.80
2019-05-22T01:28:53.797Z,11.90
2019-05-22T01:29:53.810Z,11.30
2019-05-22T01:30:53.789Z,11.80
2019-05-22T01:31:54.509Z,11.20
2019-05-22T01:32:53.825Z,11.00
2019-05-22T01:33:53.795Z,11.60
2019-05-22T01:34:53.854Z,11.00
2019-05-22T01:35:53.794Z,11.90
2019-05-22T01:36:53.801Z,11.70
2019-05-22T01:37:53.822Z,10.90
2019-05-22T01:38:53.801Z,11.70
2019-05-22T01:39:53.802Z,11.50
2019-05-22T01:40:53.787Z,12.30
2019-05-22T01:41:53.787Z,12.40
2019-05-22T01:42:53.814Z,12.20
2019-05-22T01:43:53.811Z,12.50
2019-05-22T01:45:03.618Z,12.60
2019-05-22T01:45:53.792Z,12.80
2019-05-22T01:46:53.793Z,13.00
2019-05-22T01:47:53.812Z,12.80
2019-05-22T01:48:53.818Z,13.20
2019-05-22T01:49:53.800Z,13.00
2019-05-22T01:50:53.792Z,13.80
2019-05-22T01:51:53.790Z,13.70
2019-05-22T01:52:53.793Z,14.60
2019-05-22T01:53:54.003Z,14.80
2019-05-22T01:54:53.789Z,10.90
2019-05-22T01:55:53.788Z,13.70
2019-05-22T01:56:53.793Z,12.80
2019-05-22T01:57:53.797Z,10.20
2019-05-22T01:58:53.817Z,14.30
2019-05-22T01:59:53.782Z,15.40
2019-05-22T02:00:53.791Z,16.10
2019-05-22T02:01:53.786Z,16.30
2019-05-22T02:02:53.790Z,16.40
2019-05-22T02:03:53.825Z,16.10
2019-05-22T02:04:53.791Z,15.80
2019-05-22T02:05:53.791Z,16.50
2019-05-22T02:06:53.790Z,16.40
2019-05-22T02:07:53.780Z,17.60
2019-05-22T02:08:53.808Z,17.20
2019-05-22T02:09:53.811Z,17.30
2019-05-22T02:10:53.779Z,19.00
2019-05-22T02:11:53.781Z,16.20
2019-05-22T02:12:53.783Z,18.20
2019-05-22T02:13:53.785Z,18.60
2019-05-22T02:14:53.978Z,18.00
2019-05-22T02:15:53.779Z,18.90
2019-05-22T02:16:57.244Z,18.20
2019-05-22T02:17:56.497Z,17.00
2019-05-22T02:18:53.809Z,17.60
2019-05-22T02:19:53.779Z,18.60
2019-05-22T02:20:53.790Z,19.30
2019-05-22T02:21:53.782Z,18.70
2019-05-22T02:22:53.774Z,14.80
2019-05-22T02:23:53.802Z,18.50
2019-05-22T02:24:53.782Z,19.20
2019-05-22T02:25:53.794Z,8.40
2019-05-22T02:26:53.777Z,18.90
2019-05-22T02:27:53.774Z,19.60
2019-05-22T02:28:53.807Z,18.60
2019-05-22T02:29:53.806Z,18.70
2019-05-22T02:30:54.518Z,18.40
2019-05-22T02:31:55.595Z,19.00
2019-05-22T02:32:53.776Z,19.90
2019-05-22T02:33:53.776Z,19.40
2019-05-22T02:34:53.816Z,19.20
2019-05-22T02:35:53.778Z,19.30
2019-05-22T02:36:53.793Z,19.60
2019-05-22T02:37:53.775Z,19.80
2019-05-22T02:38:53.773Z,17.10
2019-05-22T02:39:53.805Z,19.30
2019-05-22T02:40:53.769Z,20.00
2019-05-22T02:41:53.770Z,18.00
2019-05-22T02:42:53.773Z,14.60
2019-05-22T02:43:53.781Z,18.60
2019-05-22T02:44:53.808Z,16.40
2019-05-22T02:45:53.770Z,18.40
2019-05-22T02:46:53.771Z,18.50
2019-05-22T02:47:53.774Z,18.90
2019-05-22T02:48:53.769Z,16.80
2019-05-22T02:49:53.796Z,17.40
2019-05-22T02:50:53.772Z,16.90
2019-05-22T02:51:53.766Z,18.10
2019-05-22T02:52:53.764Z,19.50
2019-05-22T02:53:53.766Z,19.70
2019-05-22T02:54:53.793Z,19.30
2019-05-22T02:55:53.777Z,17.30
2019-05-22T02:56:53.775Z,19.70
2019-05-22T02:57:53.765Z,19.30
2019-05-22T02:58:53.762Z,19.70
2019-05-22T02:59:53.802Z,17.40
2019-05-22T03:00:53.764Z,19.50
2019-05-22T03:01:53.766Z,17.20
2019-05-22T03:02:53.774Z,18.60
2019-05-22T03:03:53.754Z,17.70
2019-05-22T03:04:53.792Z,18.50
2019-05-22T03:05:53.789Z,17.10
2019-05-22T03:06:53.759Z,17.20
2019-05-22T03:07:53.762Z,12.50
2019-05-22T03:08:53.763Z,11.20
2019-05-22T03:09:53.757Z,16.10
2019-05-22T03:10:53.786Z,13.10
2019-05-22T03:11:53.758Z,14.30
2019-05-22T03:12:53.756Z,17.70
2019-05-22T03:13:53.755Z,18.20
2019-05-22T03:14:53.756Z,16.00
2019-05-22T03:15:53.782Z,14.00
2019-05-22T03:16:53.753Z,12.00
2019-05-22T03:17:53.753Z,14.90
2019-05-22T03:19:08.238Z,15.10
2019-05-22T03:19:53.756Z,17.60
2019-05-22T03:20:53.777Z,17.10
2019-05-22T03:21:53.754Z,16.60
2019-05-22T03:22:53.757Z,16.40
2019-05-22T03:23:53.750Z,16.90
2019-05-22T03:24:53.747Z,16.00
2019-05-22T03:25:53.776Z,15.60
2019-05-22T03:26:53.743Z,13.40
2019-05-22T03:27:53.747Z,14.90
2019-05-22T03:28:53.750Z,14.10
2019-05-22T03:29:53.745Z,14.60
2019-05-22T03:30:53.772Z,15.40
2019-05-22T03:31:53.775Z,15.50
2019-05-22T03:32:53.755Z,13.60
2019-05-22T03:33:53.789Z,13.70
2019-05-22T03:34:53.755Z,11.10
2019-05-22T03:35:53.753Z,13.60
2019-05-22T03:36:53.773Z,14.50
2019-05-22T03:37:53.740Z,13.20
2019-05-22T03:38:53.747Z,11.20
2019-05-22T03:39:53.739Z,14.00
2019-05-22T03:40:53.745Z,12.80
2019-05-22T03:41:53.772Z,12.80
2019-05-22T03:42:53.733Z,13.00
2019-05-22T03:43:53.742Z,14.60
2019-05-22T03:44:53.736Z,11.40
2019-05-22T03:45:53.773Z,7.90
2019-05-22T03:46:53.736Z,13.60
2019-05-22T03:47:53.745Z,13.90
2019-05-22T03:48:53.740Z,14.30
2019-05-22T03:49:53.730Z,14.70
2019-05-22T03:50:53.763Z,14.50
2019-05-22T03:51:53.727Z,13.70
2019-05-22T03:52:53.736Z,14.40
2019-05-22T03:53:53.726Z,12.60
2019-05-22T03:54:53.737Z,14.50
2019-05-22T03:55:53.764Z,13.70
2019-05-22T03:56:53.726Z,13.90
2019-05-22T03:57:53.731Z,11.00
2019-05-22T03:58:53.735Z,14.50
2019-05-22T03:59:53.724Z,14.10
2019-05-22T04:00:53.742Z,13.30
2019-05-22T04:01:53.754Z,13.90
2019-05-22T04:02:53.726Z,14.60
2019-05-22T04:03:53.724Z,13.10
2019-05-22T04:04:53.721Z,13.80
2019-05-22T04:05:53.730Z,12.50
2019-05-22T04:06:53.749Z,13.90
2019-05-22T04:07:53.729Z,12.30
2019-05-22T04:08:53.726Z,13.30
2019-05-22T04:09:53.726Z,12.10
2019-05-22T04:10:53.750Z,12.10
2019-05-22T04:11:53.763Z,13.80
2019-05-22T04:12:53.724Z,13.70
2019-05-22T04:13:53.721Z,14.00
2019-05-22T04:14:53.716Z,13.70
2019-05-22T04:15:53.714Z,12.20
2019-05-22T04:16:53.749Z,13.60
2019-05-22T04:17:53.718Z,13.80
2019-05-22T04:18:53.721Z,11.80
2019-05-22T04:19:53.717Z,14.20
2019-05-22T04:20:53.723Z,10.70
2019-05-22T04:21:53.756Z,14.30
2019-05-22T04:22:53.712Z,13.50
2019-05-22T04:23:53.715Z,10.70
2019-05-22T04:24:53.765Z,13.40
2019-05-22T04:25:53.744Z,14.00
2019-05-22T04:26:53.714Z,13.10
2019-05-22T04:27:53.708Z,12.00
2019-05-22T04:28:53.711Z,10.30
2019-05-22T04:29:53.712Z,12.30
2019-05-22T04:30:53.743Z,10.20
2019-05-22T04:31:53.721Z,12.60
2019-05-22T04:32:53.719Z,13.70
2019-05-22T04:33:53.712Z,11.50
2019-05-22T04:34:53.712Z,11.90
2019-05-22T04:35:53.740Z,10.70
2019-05-22T04:36:53.707Z,12.90
2019-05-22T04:37:53.706Z,11.90
2019-05-22T04:38:53.712Z,12.80
2019-05-22T04:39:53.718Z,13.20
2019-05-22T04:40:53.734Z,13.50
2019-05-22T04:41:53.724Z,12.90
2019-05-22T04:42:53.731Z,12.80
2019-05-22T04:43:53.709Z,13.40
2019-05-22T04:44:53.706Z,9.60
2019-05-22T04:45:53.734Z,13.00
2019-05-22T04:46:53.707Z,8.50
2019-05-22T04:47:53.712Z,13.50
2019-05-22T04:48:53.706Z,9.50
2019-05-22T04:50:06.697Z,9.80
2019-05-22T04:50:53.737Z,11.10
2019-05-22T04:51:53.704Z,10.60
2019-05-22T04:52:53.703Z,12.60
2019-05-22T04:53:53.707Z,11.40
2019-05-22T04:54:53.722Z,13.20
2019-05-22T04:55:53.735Z,11.60
2019-05-22T04:56:53.696Z,11.40
2019-05-22T04:57:53.701Z,13.40
2019-05-22T04:58:53.699Z,11.70
2019-05-22T04:59:53.698Z,10.50
2019-05-22T05:00:53.728Z,13.30
2019-05-22T05:01:53.705Z,12.10
2019-05-22T05:02:53.700Z,11.80
2019-05-22T05:03:53.700Z,11.80
2019-05-22T05:04:53.711Z,12.20
2019-05-22T05:05:53.767Z,12.40
2019-05-22T05:06:54.543Z,11.80
2019-05-22T05:07:53.701Z,9.60
2019-05-22T05:08:53.715Z,10.70
2019-05-22T05:09:53.712Z,9.50
2019-05-22T05:10:53.753Z,10.50
2019-05-22T05:11:53.721Z,9.00
2019-05-22T05:12:53.708Z,11.30
2019-05-22T05:13:54.549Z,11.80
2019-05-22T05:14:53.746Z,11.20
2019-05-22T05:15:53.721Z,11.20
2019-05-22T05:16:53.746Z,9.80
2019-05-22T05:17:53.759Z,10.30
2019-05-22T05:18:53.735Z,10.30
2019-05-22T05:19:56.077Z,10.40
2019-05-22T05:21:07.279Z,8.80
2019-05-22T05:21:56.093Z,11.80
2019-05-22T05:22:53.730Z,12.00
2019-05-22T05:23:57.356Z,11.50
2019-05-22T05:24:55.780Z,8.90
2019-05-22T05:25:53.714Z,10.20
2019-05-22T05:26:53.690Z,11.00
2019-05-22T05:27:53.697Z,11.20
2019-05-22T05:28:53.704Z,11.30
2019-05-22T05:29:53.715Z,8.30
2019-05-22T05:30:53.689Z,11.80
2019-05-22T05:31:53.693Z,10.60
2019-05-22T05:32:53.711Z,9.90
2019-05-22T05:33:53.689Z,8.30
2019-05-22T05:34:53.686Z,8.40
2019-05-22T05:35:53.737Z,11.90
2019-05-22T05:36:53.688Z,10.70
2019-05-22T05:37:53.686Z,10.80
2019-05-22T05:38:53.676Z,10.30
2019-05-22T05:39:53.714Z,11.10
2019-05-22T05:40:53.679Z,10.30
2019-05-22T05:41:53.676Z,8.20
2019-05-22T05:42:53.718Z,8.30
2019-05-22T05:43:53.683Z,7.20
2019-05-22T05:44:53.686Z,7.50
2019-05-22T05:45:53.714Z,6.50
2019-05-22T05:46:53.674Z,7.50
2019-05-22T05:47:53.678Z,6.60
2019-05-22T05:48:53.680Z,8.90
2019-05-22T05:49:53.673Z,9.70
2019-05-22T05:50:53.715Z,9.10
2019-05-22T05:51:53.674Z,8.60
2019-05-22T05:52:53.706Z,9.40
2019-05-22T05:53:53.673Z,9.40
2019-05-22T05:54:53.671Z,8.60
2019-05-22T05:55:53.705Z,8.00
2019-05-22T05:56:53.705Z,8.90
2019-05-22T05:57:53.694Z,8.80
2019-05-22T05:58:54.556Z,7.80
2019-05-22T05:59:54.549Z,8.70
2019-05-22T06:00:53.719Z,7.50
2019-05-22T06:01:53.696Z,9.30
2019-05-22T06:02:56.399Z,9.10
2019-05-22T06:03:53.684Z,9.10
2019-05-22T06:04:53.692Z,7.40
2019-05-22T06:05:53.714Z,8.40
2019-05-22T06:06:54.568Z,9.10
2019-05-22T06:07:53.688Z,9.90
2019-05-22T06:08:53.710Z,8.40
2019-05-22T06:09:53.690Z,7.20
2019-05-22T06:10:53.799Z,8.20
2019-05-22T06:11:53.691Z,7.20
2019-05-22T06:12:53.690Z,8.50
2019-05-22T06:13:53.720Z,8.40
2019-05-22T06:14:53.689Z,6.90
2019-05-22T06:15:53.671Z,8.30
2019-05-22T06:16:53.732Z,7.70
2019-05-22T06:17:53.689Z,8.30
2019-05-22T06:18:56.913Z,7.00
2019-05-22T06:19:53.696Z,8.20
2019-05-22T06:21:03.757Z,5.90
2019-05-22T06:21:53.715Z,6.40
2019-05-22T06:22:53.680Z,5.10
2019-05-22T06:23:53.693Z,6.70
2019-05-22T06:24:53.678Z,6.70
2019-05-22T06:25:53.684Z,7.00
2019-05-22T06:26:53.709Z,6.00
2019-05-22T06:27:53.687Z,7.40
2019-05-22T06:28:53.711Z,5.50
2019-05-22T06:29:53.683Z,5.30
2019-05-22T06:30:53.678Z,5.50
2019-05-22T06:31:53.713Z,5.10
2019-05-22T06:32:53.741Z,6.10
2019-05-22T06:33:53.675Z,6.00
2019-05-22T06:34:53.681Z,6.40
2019-05-22T06:35:54.566Z,5.90
2019-05-22T06:36:53.718Z,5.30
2019-05-22T06:37:56.550Z,6.40
2019-05-22T06:38:53.689Z,6.30
2019-05-22T06:39:53.718Z,6.00
2019-05-22T06:40:53.664Z,6.20
2019-05-22T06:41:53.664Z,6.10
2019-05-22T06:42:53.701Z,5.70
2019-05-22T06:43:53.668Z,4.60
2019-05-22T06:44:53.668Z,4.60
2019-05-22T06:45:53.668Z,5.30
2019-05-22T06:46:53.731Z,6.20
2019-05-22T06:47:53.668Z,5.50
2019-05-22T06:48:53.669Z,4.50
2019-05-22T06:49:53.708Z,5.80
2019-05-22T06:50:53.843Z,4.00
2019-05-22T06:51:53.697Z,4.20
2019-05-22T06:53:08.911Z,4.30
2019-05-22T06:53:53.673Z,6.00
2019-05-22T06:54:53.697Z,5.50
2019-05-22T06:55:53.675Z,5.80
2019-05-22T06:56:53.669Z,4.80
2019-05-22T06:57:53.705Z,5.50
2019-05-22T06:58:53.679Z,6.20
2019-05-22T07:00:11.472Z,5.30
2019-05-22T07:00:53.674Z,5.60
2019-05-22T07:02:00.977Z,5.90
2019-05-22T07:02:53.705Z,5.60
2019-05-22T07:03:53.677Z,6.00
2019-05-22T07:04:53.676Z,4.30
2019-05-22T07:05:53.678Z,5.10
2019-05-22T07:06:53.694Z,5.50
2019-05-22T07:07:53.709Z,5.10
2019-05-22T07:08:53.680Z,5.20
2019-05-22T07:09:53.675Z,4.20
2019-05-22T07:10:53.712Z,4.70
2019-05-22T07:11:53.677Z,4.30
2019-05-22T07:12:53.713Z,5.00
2019-05-22T07:13:53.684Z,5.10
2019-05-22T07:14:53.684Z,4.50
2019-05-22T07:15:53.688Z,5.50
2019-05-22T07:16:53.691Z,4.00
2019-05-22T07:17:53.726Z,5.80
2019-05-22T07:18:53.681Z,5.80
2019-05-22T07:19:53.688Z,5.90
2019-05-22T07:20:53.726Z,5.80
2019-05-22T07:21:53.690Z,5.70
2019-05-22T07:22:53.689Z,6.10
2019-05-22T07:23:53.717Z,5.70
2019-05-22T07:24:53.692Z,5.70
2019-05-22T07:25:53.696Z,5.90
2019-05-22T07:26:53.695Z,5.80
2019-05-22T07:27:53.713Z,6.50
2019-05-22T07:28:53.722Z,5.90
2019-05-22T07:29:53.702Z,5.70
2019-05-22T07:30:53.715Z,6.00
2019-05-22T07:31:53.697Z,4.90
2019-05-22T07:32:53.698Z,5.20
2019-05-22T07:33:53.726Z,5.10
2019-05-22T07:34:53.719Z,5.00
2019-05-22T07:36:09.323Z,4.90
2019-05-22T07:36:53.699Z,4.50
2019-05-22T07:37:53.705Z,4.50
2019-05-22T07:38:53.739Z,5.10
2019-05-22T07:39:53.709Z,3.90
2019-05-22T07:40:53.739Z,5.30
2019-05-22T07:41:53.708Z,4.50
2019-05-22T07:42:53.714Z,5.20
2019-05-22T07:43:53.806Z,4.60
2019-05-22T07:44:53.740Z,5.60
2019-05-22T07:45:53.792Z,4.90
2019-05-22T07:46:53.709Z,5.10
2019-05-22T07:47:53.770Z,5.30
2019-05-22T07:48:53.715Z,5.80
2019-05-22T07:49:53.753Z,6.40
2019-05-22T07:50:53.735Z,6.10
2019-05-22T07:52:01.291Z,6.70
2019-05-22T07:52:53.722Z,5.90
2019-05-22T07:53:53.726Z,7.10
2019-05-22T07:54:53.756Z,7.10
2019-05-22T07:55:53.775Z,5.20
2019-05-22T07:56:53.729Z,8.00
2019-05-22T07:57:53.729Z,7.30
2019-05-22T07:58:53.735Z,6.70
2019-05-22T07:59:53.736Z,6.90
2019-05-22T08:00:53.762Z,6.80
2019-05-22T08:01:53.754Z,7.30
2019-05-22T08:02:53.754Z,7.40
2019-05-22T08:03:53.769Z,5.00
2019-05-22T08:04:53.755Z,5.20
2019-05-22T08:05:53.780Z,6.90
2019-05-22T08:06:53.740Z,7.50
2019-05-22T08:07:53.752Z,7.20
2019-05-22T08:08:53.757Z,6.30
2019-05-22T08:09:53.774Z,5.40
2019-05-22T08:10:53.779Z,7.00
2019-05-22T08:11:53.785Z,5.60
2019-05-22T08:12:53.753Z,6.60
2019-05-22T08:13:53.751Z,5.20
2019-05-22T08:14:53.759Z,6.00
2019-05-22T08:15:53.760Z,7.00
2019-05-22T08:16:53.792Z,6.80
2019-05-22T08:17:53.821Z,6.70
2019-05-22T08:18:53.764Z,6.90
2019-05-22T08:19:53.774Z,6.10
2019-05-22T08:20:53.781Z,5.90
2019-05-22T08:22:06.146Z,5.60
2019-05-22T08:22:53.768Z,6.90
2019-05-22T08:23:53.794Z,5.20
2019-05-22T08:24:53.778Z,3.20
2019-05-22T08:25:53.777Z,6.50
2019-05-22T08:26:55.095Z,6.90
2019-05-22T08:27:53.781Z,7.40
2019-05-22T08:28:53.782Z,5.10
2019-05-22T08:29:56.826Z,5.70
2019-05-22T08:30:53.835Z,6.30
2019-05-22T08:31:53.816Z,7.30
2019-05-22T08:32:53.796Z,8.60
2019-05-22T08:33:53.803Z,9.20
2019-05-22T08:34:53.791Z,8.00
2019-05-22T08:35:53.795Z,8.90
2019-05-22T08:36:53.819Z,7.50
2019-05-22T08:37:53.795Z,7.70
2019-05-22T08:38:53.795Z,8.60
2019-05-22T08:39:53.796Z,8.10
2019-05-22T08:40:53.817Z,7.50
2019-05-22T08:41:53.828Z,6.50
2019-05-22T08:42:53.810Z,7.80
2019-05-22T08:44:14.492Z,7.20
2019-05-22T08:44:53.806Z,7.90
2019-05-22T08:45:53.817Z,8.10
2019-05-22T08:46:53.843Z,7.90
2019-05-22T08:47:53.807Z,7.70
2019-05-22T08:48:53.820Z,7.60
2019-05-22T08:49:53.815Z,8.50
2019-05-22T08:50:53.817Z,7.90
2019-05-22T08:51:53.840Z,7.90
2019-05-22T08:52:53.816Z,7.30
2019-05-22T08:53:53.823Z,7.10
2019-05-22T08:54:53.836Z,7.20
2019-05-22T08:55:53.826Z,6.40
2019-05-22T08:56:53.850Z,6.80
2019-05-22T08:57:53.829Z,8.30
2019-05-22T08:58:53.836Z,7.20
2019-05-22T08:59:53.833Z,7.30
2019-05-22T09:00:53.835Z,7.50
2019-05-22T09:01:53.886Z,7.10
2019-05-22T09:02:53.875Z,6.10
2019-05-22T09:03:53.878Z,8.00
2019-05-22T09:04:54.574Z,8.30
2019-05-22T09:05:53.840Z,7.40
2019-05-22T09:06:53.846Z,7.20
2019-05-22T09:07:53.877Z,8.10
2019-05-22T09:08:53.856Z,4.60
2019-05-22T09:09:53.883Z,6.00
2019-05-22T09:10:53.849Z,5.60
2019-05-22T09:11:53.875Z,6.70
2019-05-22T09:12:53.890Z,7.40
2019-05-22T09:13:53.872Z,7.40
2019-05-22T09:14:53.866Z,6.20
2019-05-22T09:15:53.892Z,6.40
2019-05-22T09:16:53.861Z,6.10
2019-05-22T09:17:53.897Z,5.20
2019-05-22T09:18:53.887Z,4.50
2019-05-22T09:19:53.869Z,7.10
2019-05-22T09:20:53.873Z,9.90
2019-05-22T09:21:53.877Z,8.70
2019-05-22T09:22:53.929Z,9.00
2019-05-22T09:23:53.877Z,8.40
2019-05-22T09:24:53.887Z,6.10
2019-05-22T09:25:53.874Z,8.80
2019-05-22T09:26:53.932Z,8.70
2019-05-22T09:27:53.884Z,9.50
2019-05-22T09:28:53.917Z,9.30
2019-05-22T09:29:53.913Z,8.50
2019-05-22T09:30:53.885Z,9.40
2019-05-22T09:31:53.885Z,9.10
2019-05-22T09:32:53.914Z,8.80
2019-05-22T09:33:53.883Z,8.60
2019-05-22T09:34:53.885Z,8.70
2019-05-22T09:35:53.896Z,7.90
2019-05-22T09:36:53.907Z,9.40
2019-05-22T09:37:53.948Z,8.30
2019-05-22T09:38:53.895Z,8.60
2019-05-22T09:39:53.899Z,9.30
2019-05-22T09:40:53.891Z,8.70
2019-05-22T09:41:53.917Z,8.40
2019-05-22T09:42:53.904Z,8.40
2019-05-22T09:43:53.938Z,9.00
2019-05-22T09:44:53.900Z,8.20
2019-05-22T09:45:53.901Z,8.60
2019-05-22T09:46:53.918Z,8.80
2019-05-22T09:47:53.901Z,8.50
2019-05-22T09:48:53.941Z,8.70
2019-05-22T09:49:53.906Z,9.10
2019-05-22T09:50:53.900Z,8.80
2019-05-22T09:51:54.574Z,7.90
2019-05-22T09:52:57.475Z,8.00
2019-05-22T09:53:53.954Z,9.20
2019-05-22T09:54:54.577Z,8.50
2019-05-22T09:55:53.923Z,8.30
2019-05-22T09:56:53.918Z,7.60
2019-05-22T09:57:53.919Z,8.50
2019-05-22T09:58:53.962Z,7.60
2019-05-22T09:59:53.955Z,9.40
2019-05-22T10:00:54.553Z,8.90
2019-05-22T10:01:53.923Z,8.40
2019-05-22T10:02:53.926Z,8.30
2019-05-22T10:03:54.057Z,9.30
2019-05-22T10:04:55.925Z,7.90
2019-05-22T10:05:54.094Z,9.50
2019-05-22T10:06:53.924Z,9.20
2019-05-22T10:08:00.736Z,9.20
2019-05-22T10:08:54.784Z,7.90
2019-05-22T10:09:53.933Z,8.30
2019-05-22T10:10:53.937Z,8.80
2019-05-22T10:11:53.942Z,9.40
2019-05-22T10:12:53.938Z,9.00
2019-05-22T10:13:54.582Z,9.40
2019-05-22T10:14:53.986Z,9.00
2019-05-22T10:15:53.935Z,9.10
2019-05-22T10:16:54.533Z,9.40
2019-05-22T10:17:53.939Z,10.20
2019-05-22T10:18:53.963Z,10.10
2019-05-22T10:19:53.941Z,10.10
2019-05-22T10:20:53.938Z,10.10
2019-05-22T10:21:53.944Z,9.70
2019-05-22T10:22:53.943Z,9.40
2019-05-22T10:23:53.977Z,9.40
2019-05-22T10:25:12.055Z,8.10
2019-05-22T10:25:53.945Z,9.70
2019-05-22T10:26:53.951Z,9.60
2019-05-22T10:27:53.946Z,9.00
2019-05-22T10:28:53.992Z,7.70
2019-05-22T10:29:54.000Z,7.50
2019-05-22T10:30:55.529Z,10.10
2019-05-22T10:31:53.951Z,9.80
2019-05-22T10:32:53.939Z,10.00
2019-05-22T10:33:54.678Z,9.50
2019-05-22T10:34:57.594Z,8.10
2019-05-22T10:35:53.957Z,9.10
2019-05-22T10:36:53.964Z,10.60
2019-05-22T10:37:53.985Z,9.70
2019-05-22T10:38:53.972Z,10.30
2019-05-22T10:39:53.995Z,10.70
2019-05-22T10:40:57.944Z,10.10
2019-05-22T10:41:53.963Z,9.60
2019-05-22T10:42:53.969Z,10.10
2019-05-22T10:43:53.998Z,9.80
2019-05-22T10:44:53.966Z,10.10
2019-05-22T10:45:53.992Z,9.70
2019-05-22T10:46:53.971Z,9.60
2019-05-22T10:47:53.970Z,7.80
2019-05-22T10:48:54.001Z,9.10
2019-05-22T10:49:53.973Z,10.00
2019-05-22T10:50:53.978Z,9.80
2019-05-22T10:51:53.974Z,7.90
2019-05-22T10:52:55.110Z,8.90
2019-05-22T10:53:53.984Z,9.30
2019-05-22T10:54:56.000Z,8.60
2019-05-22T10:55:53.976Z,8.00
2019-05-22T10:56:53.980Z,7.00
2019-05-22T10:57:53.998Z,9.10
2019-05-22T10:58:53.987Z,7.70
2019-05-22T10:59:54.015Z,8.50
2019-05-22T11:00:53.987Z,8.80
2019-05-22T11:01:53.992Z,8.50
2019-05-22T11:02:53.991Z,6.50
2019-05-22T11:03:53.983Z,9.10
2019-05-22T11:04:54.033Z,10.20
2019-05-22T11:06:06.595Z,11.20
2019-05-22T11:06:53.999Z,9.80
2019-05-22T11:07:53.996Z,9.20
2019-05-22T11:08:53.997Z,9.20
2019-05-22T11:09:54.025Z,10.10
2019-05-22T11:10:53.991Z,8.80
2019-05-22T11:11:53.990Z,10.90
2019-05-22T11:12:53.992Z,8.90
2019-05-22T11:14:01.521Z,8.40
2019-05-22T11:14:54.023Z,9.20
2019-05-22T11:15:54.032Z,8.00
2019-05-22T11:16:54.005Z,10.30
2019-05-22T11:17:54.003Z,9.20
2019-05-22T11:18:53.997Z,9.40
2019-05-22T11:19:54.028Z,10.00
2019-05-22T11:20:54.013Z,10.20
2019-05-22T11:21:56.998Z,9.20
2019-05-22T11:22:54.007Z,10.20
2019-05-22T11:23:54.006Z,9.20
2019-05-22T11:24:54.075Z,9.80
2019-05-22T11:25:54.017Z,8.90
2019-05-22T11:26:54.020Z,8.80
2019-05-22T11:27:54.013Z,9.20
2019-05-22T11:28:54.012Z,9.60
2019-05-22T11:29:54.047Z,8.30
2019-05-22T11:30:54.032Z,8.90
2019-05-22T11:31:54.019Z,9.40
2019-05-22T11:32:54.020Z,10.10
2019-05-22T11:33:54.016Z,9.70
2019-05-22T11:34:54.066Z,7.10
2019-05-22T11:35:54.599Z,9.20
2019-05-22T11:36:54.034Z,9.60
2019-05-22T11:37:54.048Z,9.40
2019-05-22T11:38:54.023Z,9.60
2019-05-22T11:39:54.033Z,9.40
2019-05-22T11:40:54.053Z,9.40
2019-05-22T11:41:54.023Z,9.70
2019-05-22T11:42:54.027Z,9.70
2019-05-22T11:43:54.028Z,9.10
2019-05-22T11:44:54.039Z,9.60
2019-05-22T11:45:54.057Z,9.30
2019-05-22T11:46:54.033Z,9.10
2019-05-22T11:47:54.032Z,9.30
2019-05-22T11:48:54.029Z,9.20
2019-05-22T11:49:54.149Z,8.90
2019-05-22T11:50:54.060Z,8.50
2019-05-22T11:51:54.034Z,8.80
2019-05-22T11:52:54.043Z,8.90
2019-05-22T11:54:07.842Z,8.70
2019-05-22T11:54:54.049Z,8.50
2019-05-22T11:55:56.766Z,9.00
2019-05-22T11:56:54.041Z,8.20
2019-05-22T11:57:54.047Z,8.20
2019-05-22T11:58:54.055Z,8.70
2019-05-22T11:59:54.061Z,7.80
2019-05-22T12:00:54.081Z,7.90
2019-05-22T12:01:54.079Z,8.60
2019-05-22T12:02:54.052Z,7.80
2019-05-22T12:03:54.051Z,8.30
2019-05-22T12:04:54.063Z,7.50
2019-05-22T12:05:55.020Z,7.60
2019-05-22T12:06:54.162Z,6.80
2019-05-22T12:07:54.063Z,7.70
2019-05-22T12:08:54.057Z,7.70
2019-05-22T12:09:54.070Z,8.10
2019-05-22T12:10:54.098Z,8.10
2019-05-22T12:11:54.069Z,7.90
2019-05-22T12:12:54.065Z,7.50
2019-05-22T12:13:54.070Z,7.20
2019-05-22T12:14:54.072Z,5.90
2019-05-22T12:15:54.110Z,7.20
2019-05-22T12:16:54.075Z,7.20
2019-05-22T12:17:54.082Z,7.30
2019-05-22T12:18:54.096Z,8.20
2019-05-22T12:19:54.101Z,5.40
2019-05-22T12:20:54.115Z,6.10
2019-05-22T12:21:54.150Z,3.90
2019-05-22T12:22:54.092Z,5.60
2019-05-22T12:23:54.089Z,7.40
2019-05-22T12:24:54.096Z,8.40
2019-05-22T12:25:54.123Z,8.20
2019-05-22T12:26:54.094Z,8.20
2019-05-22T12:27:54.099Z,7.10
2019-05-22T12:28:54.097Z,8.70
2019-05-22T12:29:54.102Z,8.20
2019-05-22T12:30:54.136Z,6.40
2019-05-22T12:31:54.099Z,7.30
2019-05-22T12:32:54.122Z,8.10
2019-05-22T12:33:54.111Z,8.10
2019-05-22T12:34:54.126Z,7.50
2019-05-22T12:35:54.135Z,7.30
2019-05-22T12:36:54.128Z,8.00
2019-05-22T12:37:54.123Z,7.40
2019-05-22T12:38:54.116Z,8.10
2019-05-22T12:39:54.116Z,7.60
2019-05-22T12:40:54.159Z,6.90
2019-05-22T12:41:54.171Z,4.80
2019-05-22T12:42:54.135Z,7.00
2019-05-22T12:43:54.149Z,7.20
2019-05-22T12:44:54.236Z,6.90
2019-05-22T12:45:54.129Z,6.70
2019-05-22T12:46:54.160Z,5.70
2019-05-22T12:47:54.141Z,5.90
2019-05-22T12:48:54.150Z,6.30
2019-05-22T12:49:54.162Z,6.60
2019-05-22T12:50:54.178Z,6.70
2019-05-22T12:51:54.143Z,6.30
2019-05-22T12:52:54.152Z,5.40
2019-05-22T12:53:54.156Z,4.80
2019-05-22T12:54:54.155Z,4.60
2019-05-22T12:55:54.193Z,6.20
2019-05-22T12:56:54.168Z,6.20
2019-05-22T12:57:54.186Z,6.10
2019-05-22T12:58:54.162Z,5.90
2019-05-22T12:59:54.166Z,5.40
2019-05-22T13:00:54.202Z,5.80
2019-05-22T13:01:54.179Z,6.00
2019-05-22T13:02:54.185Z,5.80
2019-05-22T13:03:54.183Z,5.20
2019-05-22T13:04:54.310Z,5.60
2019-05-22T13:05:55.120Z,6.20
2019-05-22T13:06:54.219Z,5.00
2019-05-22T13:07:54.196Z,4.90